createdAt,value
2024-05-09T00:01:21.826Z,78.84
2024-05-09T00:03:51.217Z,78.57
2024-05-09T00:06:20.538Z,78.41
2024-05-09T00:08:49.807Z,78.32
2024-05-09T00:11:23.029Z,78.24
2024-05-09T00:13:52.481Z,78.36
2024-05-09T00:16:21.859Z,78.24
2024-05-09T00:18:51.297Z,78.51
2024-05-09T00:21:20.684Z,78.44
2024-05-09T00:23:49.976Z,78.74
2024-05-09T00:26:21.945Z,78.94
2024-05-09T00:28:51.308Z,79.05
2024-05-09T00:31:20.619Z,79.03
2024-05-09T00:33:50.003Z,79.01
2024-05-09T00:36:19.322Z,78.79
2024-05-09T00:38:48.676Z,79.42
2024-05-09T00:41:19.856Z,79.69
2024-05-09T00:43:51.987Z,79.60
2024-05-09T00:46:21.622Z,79.59
2024-05-09T00:48:51.733Z,79.91
2024-05-09T00:51:22.144Z,80.00
2024-05-09T00:53:51.833Z,80.02
2024-05-09T00:56:23.837Z,80.18
2024-05-09T00:58:57.119Z,80.24
2024-05-09T01:01:27.787Z,80.41
2024-05-09T01:03:57.442Z,80.08
2024-05-09T01:06:26.906Z,79.87
2024-05-09T01:08:56.220Z,79.79
2024-05-09T01:11:25.582Z,79.30
2024-05-09T01:13:57.539Z,79.49
2024-05-09T01:16:26.915Z,79.42
2024-05-09T01:18:56.295Z,79.14
2024-05-09T01:21:25.636Z,79.48
2024-05-09T01:23:57.572Z,79.75
2024-05-09T01:26:26.884Z,79.52
2024-05-09T01:28:56.218Z,79.24
2024-05-09T01:31:25.537Z,79.49
2024-05-09T01:33:54.927Z,79.63
2024-05-09T01:36:24.228Z,79.63
2024-05-09T01:38:53.536Z,79.71
2024-05-09T01:41:25.555Z,80.10
2024-05-09T01:43:55.074Z,79.76
2024-05-09T01:46:24.399Z,79.74
2024-05-09T01:48:53.926Z,79.57
2024-05-09T01:51:23.320Z,79.73
2024-05-09T01:53:52.651Z,80.14
2024-05-09T01:56:22.005Z,79.74
2024-05-09T01:58:54.133Z,79.88
2024-05-09T02:01:23.504Z,79.49
2024-05-09T02:03:53.163Z,79.38
2024-05-09T02:06:22.623Z,80.05
2024-05-09T02:08:51.938Z,79.58
2024-05-09T02:11:21.266Z,79.75
2024-05-09T02:13:51.721Z,79.22
2024-05-09T02:16:23.613Z,79.31
2024-05-09T02:18:53.042Z,78.70
2024-05-09T02:21:22.388Z,78.42
2024-05-09T02:23:51.736Z,78.36
2024-05-09T02:26:21.180Z,78.18
2024-05-09T02:28:50.642Z,78.44
2024-05-09T02:31:19.978Z,78.69
2024-05-09T02:33:52.112Z,79.20
2024-05-09T02:36:22.511Z,78.77
2024-05-09T02:38:49.251Z,78.69
2024-05-09T02:41:18.604Z,79.05
2024-05-09T02:43:45.438Z,78.84
2024-05-09T02:46:14.798Z,79.07
2024-05-09T02:48:41.670Z,78.91
2024-05-09T02:51:13.623Z,78.75
2024-05-09T02:53:40.460Z,78.67
2024-05-09T02:56:10.248Z,78.05
2024-05-09T02:58:37.036Z,77.93
2024-05-09T03:01:06.606Z,78.11
2024-05-09T03:03:33.611Z,78.39
2024-05-09T03:06:04.607Z,78.01
2024-05-09T03:08:36.561Z,78.09
2024-05-09T03:11:03.433Z,77.75
2024-05-09T03:13:32.791Z,78.01
2024-05-09T03:15:59.822Z,77.69
2024-05-09T03:18:29.205Z,77.93
2024-05-09T03:20:55.998Z,78.38
2024-05-09T03:23:25.335Z,78.54
2024-05-09T03:25:54.796Z,78.31
2024-05-09T03:28:24.093Z,78.45
2024-05-09T03:30:50.781Z,78.52
2024-05-09T03:33:20.868Z,78.28
2024-05-09T03:35:49.170Z,78.99
2024-05-09T03:38:19.111Z,79.31
2024-05-09T03:40:49.822Z,79.07
2024-05-09T03:43:22.637Z,78.25
2024-05-09T03:45:50.002Z,78.23
2024-05-09T03:48:19.659Z,77.90
2024-05-09T03:50:46.617Z,78.38
2024-05-09T03:53:16.927Z,77.74
2024-05-09T03:55:43.752Z,77.51
2024-05-09T03:58:14.371Z,77.52
2024-05-09T04:00:44.361Z,77.80
2024-05-09T04:03:13.979Z,78.13
2024-05-09T04:05:42.429Z,78.50
2024-05-09T04:08:13.066Z,78.69
2024-05-09T04:10:40.618Z,78.30
2024-05-09T04:13:10.000Z,78.02
2024-05-09T04:15:36.763Z,78.28
2024-05-09T04:18:08.902Z,78.39
2024-05-09T04:20:39.321Z,78.98
2024-05-09T04:23:13.857Z,78.96
2024-05-09T04:25:42.506Z,78.99
2024-05-09T04:28:11.941Z,79.33
2024-05-09T04:30:41.035Z,78.89
2024-05-09T04:33:14.951Z,78.92
2024-05-09T04:35:42.957Z,78.97
2024-05-09T04:38:12.862Z,79.04
2024-05-09T04:40:40.033Z,79.16
2024-05-09T04:43:16.165Z,79.22
2024-05-09T04:45:43.102Z,79.86
2024-05-09T04:48:16.501Z,80.33
2024-05-09T04:50:43.747Z,79.61
2024-05-09T04:53:18.538Z,79.97
2024-05-09T04:55:45.488Z,79.58
2024-05-09T04:58:14.828Z,79.71
2024-05-09T05:00:41.909Z,80.06
2024-05-09T05:03:14.856Z,80.16
2024-05-09T05:05:46.178Z,79.35
2024-05-09T05:08:17.243Z,78.85
2024-05-09T05:10:45.269Z,78.57
2024-05-09T05:13:23.911Z,78.71
2024-05-09T05:15:53.708Z,78.08
2024-05-09T05:18:24.730Z,77.77
2024-05-09T05:20:55.670Z,77.96
2024-05-09T05:23:25.770Z,77.91
2024-05-09T05:25:53.752Z,78.80
2024-05-09T05:28:23.740Z,78.86
2024-05-09T05:30:50.793Z,78.39
2024-05-09T05:33:22.322Z,78.67
2024-05-09T05:35:49.683Z,78.00
2024-05-09T05:38:25.035Z,77.92
2024-05-09T05:40:54.261Z,78.66
2024-05-09T05:43:23.637Z,78.37
2024-05-09T05:45:50.380Z,77.92
2024-05-09T05:48:19.906Z,77.54
2024-05-09T05:50:46.912Z,78.14
2024-05-09T05:53:16.524Z,78.82
2024-05-09T05:55:45.998Z,78.60
2024-05-09T05:58:15.355Z,78.27
2024-05-09T06:00:42.792Z,79.01
2024-05-09T06:03:14.465Z,78.57
2024-05-09T06:05:43.673Z,78.76
2024-05-09T06:08:13.947Z,78.39
2024-05-09T06:10:41.700Z,77.20
2024-05-09T06:13:15.625Z,78.11
2024-05-09T06:15:43.238Z,77.45
2024-05-09T06:18:13.289Z,77.57
2024-05-09T06:20:41.911Z,74.91
2024-05-09T06:23:13.035Z,74.68
2024-05-09T06:25:40.624Z,74.72
2024-05-09T06:28:09.958Z,73.77
2024-05-09T06:30:42.222Z,71.51
2024-05-09T06:33:15.603Z,72.84
2024-05-09T06:35:43.618Z,73.46
2024-05-09T06:38:13.247Z,71.48
2024-05-09T06:40:42.368Z,71.67
2024-05-09T06:43:14.031Z,71.69
2024-05-09T06:45:43.944Z,69.40
2024-05-09T06:48:13.959Z,70.49
2024-05-09T06:50:41.604Z,69.33
2024-05-09T06:53:11.265Z,66.83
2024-05-09T06:55:38.265Z,68.86
2024-05-09T06:58:09.664Z,68.38
2024-05-09T07:00:39.789Z,67.16
2024-05-09T07:03:16.791Z,67.28
2024-05-09T07:05:45.795Z,67.30
2024-05-09T07:08:15.841Z,67.50
2024-05-09T07:10:42.858Z,65.64
2024-05-09T07:13:12.743Z,65.21
2024-05-09T07:15:40.215Z,63.91
2024-05-09T07:18:19.955Z,62.28
2024-05-09T07:20:48.245Z,64.09
2024-05-09T07:23:18.695Z,62.66
2024-05-09T07:25:45.839Z,62.25
2024-05-09T07:28:16.990Z,61.21
2024-05-09T07:30:44.282Z,60.47
2024-05-09T07:33:23.171Z,57.42
2024-05-09T07:35:51.285Z,58.28
2024-05-09T07:38:20.828Z,57.87
2024-05-09T07:40:47.941Z,56.76
2024-05-09T07:43:17.534Z,55.26
2024-05-09T07:45:51.882Z,54.89
2024-05-09T07:50:00.063Z,53.92
2024-05-09T07:53:50.602Z,54.34
2024-05-09T07:56:22.104Z,52.95
2024-05-09T07:58:53.195Z,52.12
2024-05-09T08:01:20.725Z,51.92
2024-05-09T08:03:53.250Z,50.11
2024-05-09T08:06:22.717Z,51.31
2024-05-09T08:08:49.811Z,51.84
2024-05-09T08:11:19.624Z,51.71
2024-05-09T08:13:46.431Z,49.88
2024-05-09T08:16:16.764Z,49.17
2024-05-09T08:18:43.565Z,49.26
2024-05-09T08:21:15.463Z,49.40
2024-05-09T08:23:42.212Z,48.81
2024-05-09T08:26:11.567Z,48.32
2024-05-09T08:28:38.269Z,48.10
2024-05-09T08:31:07.860Z,47.73
2024-05-09T08:33:34.946Z,47.42
2024-05-09T08:36:04.460Z,47.18
2024-05-09T08:38:33.726Z,46.66
2024-05-09T08:41:06.090Z,45.72
2024-05-09T08:43:32.943Z,46.46
2024-05-09T08:46:04.852Z,46.00
2024-05-09T08:48:39.308Z,45.59
2024-05-09T08:51:09.483Z,47.51
2024-05-09T08:53:39.578Z,44.82
2024-05-09T08:56:12.130Z,44.79
2024-05-09T08:58:39.105Z,46.20
2024-05-09T09:01:09.599Z,44.94
2024-05-09T09:03:37.436Z,43.33
2024-05-09T09:06:09.429Z,42.62
2024-05-09T09:08:39.491Z,42.68
2024-05-09T09:11:08.967Z,44.29
2024-05-09T09:13:35.660Z,44.69
2024-05-09T09:16:05.066Z,44.08
2024-05-09T09:18:32.816Z,43.59
2024-05-09T09:21:02.830Z,42.94
2024-05-09T09:23:29.930Z,42.66
2024-05-09T09:26:03.764Z,41.31
2024-05-09T09:28:30.555Z,42.52
2024-05-09T09:31:04.114Z,41.29
2024-05-09T09:33:31.709Z,41.53
2024-05-09T09:36:01.907Z,42.29
2024-05-09T09:38:31.213Z,43.03
2024-05-09T09:41:07.836Z,39.12
2024-05-09T09:43:36.436Z,40.58
2024-05-09T09:46:09.733Z,41.60
2024-05-09T09:48:40.500Z,40.81
2024-05-09T09:51:10.985Z,41.05
2024-05-09T09:53:38.621Z,40.26
2024-05-09T09:56:12.762Z,41.40
2024-05-09T09:58:42.193Z,40.13
2024-05-09T10:01:11.728Z,40.29
2024-05-09T10:03:38.906Z,41.00
2024-05-09T10:06:10.283Z,40.39
2024-05-09T10:08:37.889Z,40.45
2024-05-09T10:11:09.940Z,39.08
2024-05-09T10:13:36.836Z,39.98
2024-05-09T10:16:10.826Z,40.49
2024-05-09T10:18:37.932Z,40.47
2024-05-09T10:21:18.182Z,40.48
2024-05-09T10:23:56.316Z,40.55
2024-05-09T10:26:35.651Z,40.23
2024-05-09T10:29:12.594Z,39.82
2024-05-09T10:31:45.571Z,40.33
2024-05-09T10:34:19.315Z,40.73
2024-05-09T10:36:49.024Z,41.05
2024-05-09T10:39:16.008Z,40.84
2024-05-09T10:41:47.960Z,40.86
2024-05-09T10:44:16.334Z,40.58
2024-05-09T10:46:45.971Z,40.48
2024-05-09T10:49:14.146Z,40.33
2024-05-09T10:51:44.446Z,40.52
2024-05-09T10:54:11.348Z,40.18
2024-05-09T10:56:41.888Z,40.39
2024-05-09T10:59:12.741Z,40.19
2024-05-09T11:01:42.989Z,40.54
2024-05-09T11:04:10.154Z,39.32
2024-05-09T11:06:39.976Z,39.80
2024-05-09T11:09:06.920Z,39.04
2024-05-09T11:11:36.369Z,40.17
2024-05-09T11:14:14.278Z,39.46
2024-05-09T11:16:43.663Z,39.58
2024-05-09T11:19:12.769Z,39.06
2024-05-09T11:21:42.546Z,39.25
2024-05-09T11:24:11.395Z,39.33
2024-05-09T11:26:41.165Z,39.38
2024-05-09T11:29:07.882Z,39.28
2024-05-09T11:31:49.563Z,40.10
2024-05-09T11:34:16.475Z,39.66
2024-05-09T11:36:46.006Z,39.74
2024-05-09T11:39:14.616Z,39.54
2024-05-09T11:41:43.990Z,39.63
2024-05-09T11:44:10.719Z,40.41
2024-05-09T11:46:40.020Z,39.85
2024-05-09T11:49:12.593Z,39.35
2024-05-09T11:51:39.570Z,39.62
2024-05-09T11:54:08.868Z,39.28
2024-05-09T11:56:35.773Z,39.75
2024-05-09T11:59:05.529Z,41.01
2024-05-09T12:01:32.513Z,41.70
2024-05-09T12:04:02.158Z,40.25
2024-05-09T12:06:31.733Z,40.32
2024-05-09T12:09:01.170Z,39.84
2024-05-09T12:11:27.929Z,40.47
2024-05-09T12:13:57.199Z,40.21
2024-05-09T12:16:24.398Z,40.45
2024-05-09T12:18:54.088Z,38.54
2024-05-09T12:21:20.861Z,39.27
2024-05-09T12:23:52.756Z,38.55
2024-05-09T12:26:19.569Z,39.59
2024-05-09T12:28:48.929Z,38.68
2024-05-09T12:31:15.657Z,38.97
2024-05-09T12:33:45.120Z,38.76
2024-05-09T12:36:11.926Z,38.30
2024-05-09T12:38:41.375Z,38.56
2024-05-09T12:41:10.686Z,38.74
2024-05-09T12:43:40.000Z,38.50
2024-05-09T12:46:06.825Z,37.92
2024-05-09T12:48:36.376Z,37.41
2024-05-09T12:51:03.282Z,37.77
2024-05-09T12:53:32.552Z,37.67
2024-05-09T12:56:02.359Z,38.31
2024-05-09T12:58:35.612Z,37.18
2024-05-09T13:01:02.415Z,37.64
2024-05-09T13:03:31.885Z,37.16
2024-05-09T13:05:58.902Z,37.82
2024-05-09T13:08:28.335Z,38.20
2024-05-09T13:10:55.275Z,37.82
2024-05-09T13:13:24.724Z,36.95
2024-05-09T13:15:54.309Z,37.54
2024-05-09T13:18:23.695Z,38.02
2024-05-09T13:20:50.400Z,38.16
2024-05-09T13:23:19.728Z,37.59
2024-05-09T13:25:46.505Z,37.52
2024-05-09T13:28:16.167Z,38.13
2024-05-09T13:30:43.132Z,37.67
2024-05-09T13:33:15.855Z,37.81
2024-05-09T13:35:47.262Z,38.30
2024-05-09T13:38:20.761Z,37.78
2024-05-09T13:40:48.448Z,37.74
2024-05-09T13:43:18.534Z,36.95
2024-05-09T13:45:45.729Z,37.67
2024-05-09T13:48:17.886Z,37.68
2024-05-09T13:50:44.656Z,37.70
2024-05-09T13:53:14.326Z,37.63
2024-05-09T13:55:41.082Z,38.05
2024-05-09T13:58:10.897Z,37.95
2024-05-09T14:00:45.058Z,38.11
2024-05-09T14:03:21.442Z,37.17
2024-05-09T14:05:49.934Z,36.71
2024-05-09T14:08:22.142Z,36.77
2024-05-09T14:10:49.790Z,36.70
2024-05-09T14:13:19.674Z,37.71
2024-05-09T14:15:46.818Z,38.66
2024-05-09T14:18:16.409Z,38.61
2024-05-09T14:20:45.770Z,38.15
2024-05-09T14:23:15.083Z,38.28
2024-05-09T14:25:43.393Z,38.52
2024-05-09T14:28:13.997Z,38.16
2024-05-09T14:30:41.025Z,38.72
2024-05-09T14:33:11.226Z,37.99
2024-05-09T14:35:38.996Z,38.13
2024-05-09T14:38:11.576Z,37.07
2024-05-09T14:40:42.954Z,38.17
2024-05-09T14:43:14.369Z,38.01
2024-05-09T14:45:41.822Z,38.00
2024-05-09T14:48:11.617Z,38.60
2024-05-09T14:50:40.209Z,39.03
2024-05-09T14:53:14.180Z,37.36
2024-05-09T14:55:42.770Z,37.45
2024-05-09T14:58:13.774Z,37.21
2024-05-09T15:00:46.146Z,38.01
2024-05-09T15:03:19.829Z,38.60
2024-05-09T15:05:47.501Z,38.32
2024-05-09T15:08:20.329Z,37.47
2024-05-09T15:10:49.618Z,38.00
2024-05-09T15:13:20.033Z,38.13
2024-05-09T15:15:47.075Z,38.65
2024-05-09T15:18:17.041Z,39.57
2024-05-09T15:20:44.763Z,39.05
2024-05-09T15:23:14.318Z,40.10
2024-05-09T15:25:44.710Z,39.14
2024-05-09T15:28:14.182Z,39.43
2024-05-09T15:30:45.370Z,38.29
2024-05-09T15:33:15.803Z,39.24
2024-05-09T15:35:42.594Z,38.63
2024-05-09T15:38:12.195Z,37.98
2024-05-09T15:40:40.722Z,37.69
2024-05-09T15:43:13.248Z,37.43
2024-05-09T15:45:41.124Z,37.62
2024-05-09T15:48:11.982Z,37.47
2024-05-09T15:50:41.446Z,37.14
2024-05-09T15:53:13.127Z,37.67
2024-05-09T15:55:41.506Z,37.80
2024-05-09T15:58:13.828Z,38.15
2024-05-09T16:00:43.614Z,37.86
2024-05-09T16:03:15.639Z,38.09
2024-05-09T16:05:44.082Z,38.10
2024-05-09T16:08:14.666Z,37.88
2024-05-09T16:10:44.483Z,37.55
2024-05-09T16:13:19.616Z,37.87
2024-05-09T16:15:46.855Z,37.92
2024-05-09T16:18:16.360Z,37.89
2024-05-09T16:23:12.709Z,38.30
2024-05-09T16:25:40.141Z,37.84
2024-05-09T16:28:10.873Z,37.81
2024-05-09T16:30:41.133Z,37.51
2024-05-09T16:33:11.719Z,37.53
2024-05-09T16:35:39.492Z,37.46
2024-05-09T16:38:09.208Z,37.75
2024-05-09T16:40:39.661Z,37.50
2024-05-09T16:43:11.222Z,37.56
2024-05-09T16:45:43.798Z,37.49
2024-05-09T16:48:14.074Z,38.54
2024-05-09T16:50:41.220Z,37.76
2024-05-09T16:53:10.748Z,37.66
2024-05-09T16:55:38.365Z,37.79
2024-05-09T16:58:09.041Z,37.59
2024-05-09T17:00:41.366Z,37.51
2024-05-09T17:03:16.705Z,38.10
2024-05-09T17:05:45.977Z,37.90
2024-05-09T17:08:18.451Z,37.28
2024-05-09T17:10:45.903Z,37.76
2024-05-09T17:13:15.520Z,37.58
2024-05-09T17:15:44.906Z,37.30
2024-05-09T17:18:17.048Z,37.91
2024-05-09T17:20:43.758Z,37.09
2024-05-09T17:23:14.920Z,36.97
2024-05-09T17:25:42.616Z,36.95
2024-05-09T17:28:12.753Z,36.95
2024-05-09T17:30:41.604Z,37.37
2024-05-09T17:33:13.214Z,37.48
2024-05-09T17:35:45.622Z,36.89
2024-05-09T17:38:15.346Z,37.50
2024-05-09T17:40:42.130Z,37.54
2024-05-09T17:43:12.754Z,37.21
2024-05-09T17:45:40.976Z,36.93
2024-05-09T17:48:12.391Z,37.21
2024-05-09T17:50:39.813Z,37.29
2024-05-09T17:53:12.249Z,37.09
2024-05-09T17:55:39.937Z,37.40
2024-05-09T17:58:10.089Z,37.72
2024-05-09T18:00:40.275Z,38.18
2024-05-09T18:03:13.895Z,37.68
2024-05-09T18:05:42.727Z,37.79
2024-05-09T18:08:15.612Z,38.21
2024-05-09T18:10:42.728Z,38.82
2024-05-09T18:13:12.924Z,38.72
2024-05-09T18:15:40.537Z,38.86
2024-05-09T18:18:10.726Z,39.33
2024-05-09T18:20:43.702Z,40.21
2024-05-09T18:23:19.944Z,41.38
2024-05-09T18:25:47.342Z,41.92
2024-05-09T18:28:17.787Z,42.07
2024-05-09T18:30:44.878Z,42.78
2024-05-09T18:33:14.906Z,42.98
2024-05-09T18:35:43.050Z,43.63
2024-05-09T18:38:12.555Z,44.26
2024-05-09T18:40:44.768Z,44.38
2024-05-09T18:43:16.654Z,44.76
2024-05-09T18:45:44.470Z,44.90
2024-05-09T18:48:14.201Z,44.95
2024-05-09T18:50:41.758Z,45.55
2024-05-09T18:53:13.411Z,45.61
2024-05-09T18:55:43.342Z,46.00
2024-05-09T18:58:12.837Z,45.83
2024-05-09T19:00:42.649Z,46.11
2024-05-09T19:03:15.140Z,46.60
2024-05-09T19:05:43.993Z,46.96
2024-05-09T19:08:15.069Z,47.71
2024-05-09T19:10:45.866Z,47.98
2024-05-09T19:13:16.441Z,47.99
2024-05-09T19:15:44.122Z,48.17
2024-05-09T19:18:15.174Z,48.50
2024-05-09T19:20:42.602Z,48.81
2024-05-09T19:23:12.306Z,48.97
2024-05-09T19:25:39.103Z,49.28
2024-05-09T19:28:11.412Z,50.06
2024-05-09T19:30:41.446Z,49.47
2024-05-09T19:33:13.689Z,49.55
2024-05-09T19:35:41.283Z,49.97
2024-05-09T19:38:10.819Z,49.63
2024-05-09T19:40:37.619Z,50.15
2024-05-09T19:43:07.594Z,50.62
2024-05-09T19:45:37.034Z,51.07
2024-05-09T19:48:07.129Z,51.09
2024-05-09T19:50:41.353Z,51.14
2024-05-09T19:53:14.057Z,50.98
2024-05-09T19:55:41.037Z,50.97
2024-05-09T19:58:12.293Z,51.69
2024-05-09T20:00:43.827Z,51.85
2024-05-09T20:03:15.652Z,51.54
2024-05-09T20:05:45.133Z,51.65
2024-05-09T20:08:14.915Z,52.02
2024-05-09T20:10:41.802Z,52.14
2024-05-09T20:13:11.198Z,52.61
2024-05-09T20:15:38.375Z,52.62
2024-05-09T20:18:10.950Z,53.06
2024-05-09T20:20:41.674Z,53.26
2024-05-09T20:23:13.000Z,52.47
2024-05-09T20:25:40.187Z,52.40
2024-05-09T20:28:10.355Z,52.93
2024-05-09T20:30:37.452Z,52.80
2024-05-09T20:33:10.396Z,53.30
2024-05-09T20:35:37.500Z,53.59
2024-05-09T20:38:07.124Z,53.92
2024-05-09T20:40:37.722Z,54.38
2024-05-09T20:43:08.855Z,54.20
2024-05-09T20:45:36.364Z,54.54
2024-05-09T20:48:06.212Z,54.58
2024-05-09T20:50:39.807Z,54.74
2024-05-09T20:53:13.196Z,54.60
2024-05-09T20:55:44.641Z,55.07
2024-05-09T20:58:12.075Z,55.10
2024-05-09T21:00:44.586Z,55.39
2024-05-09T21:03:13.794Z,55.33
2024-05-09T21:05:47.443Z,55.61
2024-05-09T21:08:14.897Z,55.40
2024-05-09T21:10:44.299Z,55.47
2024-05-09T21:13:11.413Z,55.61
2024-05-09T21:15:40.833Z,56.01
2024-05-09T21:18:07.952Z,56.31
2024-05-09T21:20:37.692Z,56.35
2024-05-09T21:23:07.272Z,56.64
2024-05-09T21:25:36.695Z,56.60
2024-05-09T21:28:04.434Z,56.74
2024-05-09T21:30:41.255Z,56.88
2024-05-09T21:33:11.771Z,57.06
2024-05-09T21:35:43.092Z,57.04
2024-05-09T21:38:14.026Z,57.67
2024-05-09T21:40:43.949Z,57.51
2024-05-09T21:43:10.991Z,57.54
2024-05-09T21:45:40.434Z,57.71
2024-05-09T21:48:08.244Z,57.97
2024-05-09T21:50:41.056Z,57.64
2024-05-09T21:53:12.868Z,57.70
2024-05-09T21:55:42.934Z,58.00
2024-05-09T21:58:10.528Z,58.37
2024-05-09T22:00:42.787Z,58.11
2024-05-09T22:03:11.218Z,58.25
2024-05-09T22:05:44.374Z,58.75
2024-05-09T22:08:14.241Z,58.89
2024-05-09T22:10:43.705Z,58.88
2024-05-09T22:13:10.502Z,58.69
2024-05-09T22:15:41.116Z,58.56
2024-05-09T22:18:09.878Z,58.68
2024-05-09T22:20:43.673Z,59.40
2024-05-09T22:23:11.785Z,59.50
2024-05-09T22:25:43.978Z,59.61
2024-05-09T22:28:14.552Z,59.36
2024-05-09T22:30:46.083Z,59.90
2024-05-09T22:33:13.467Z,59.68
2024-05-09T22:35:42.967Z,59.65
2024-05-09T22:38:09.795Z,59.60
2024-05-09T22:40:47.259Z,60.07
2024-05-09T22:43:21.011Z,60.35
2024-05-09T22:45:52.244Z,60.14
2024-05-09T22:48:19.529Z,60.57
2024-05-09T22:50:48.944Z,60.86
2024-05-09T22:53:15.668Z,60.90
2024-05-09T22:55:45.091Z,60.70
2024-05-09T22:58:11.982Z,61.22
2024-05-09T23:00:44.128Z,61.67
2024-05-09T23:03:11.738Z,61.49
2024-05-09T23:05:41.093Z,61.83
2024-05-09T23:08:08.533Z,62.04
2024-05-09T23:10:38.550Z,62.25
2024-05-09T23:13:06.608Z,62.48
2024-05-09T23:15:36.516Z,62.21
2024-05-09T23:18:06.546Z,62.93
2024-05-09T23:20:39.042Z,62.62
2024-05-09T23:23:07.175Z,62.13
2024-05-09T23:25:36.728Z,62.67
2024-05-09T23:28:04.481Z,62.00
2024-05-09T23:30:38.341Z,61.84
2024-05-09T23:33:11.324Z,62.23
2024-05-09T23:35:40.980Z,62.48
2024-05-09T23:38:07.702Z,62.44
2024-05-09T23:40:40.025Z,62.62
2024-05-09T23:43:08.740Z,62.61
2024-05-09T23:45:38.499Z,62.23
2024-05-09T23:48:06.364Z,62.54
2024-05-09T23:50:40.115Z,63.18
2024-05-09T23:53:10.968Z,63.11
2024-05-09T23:55:38.620Z,63.01
2024-05-09T23:58:08.854Z,63.42
